createdAt,value
2023-05-13T00:02:00.029Z,17.27
2023-05-13T00:05:02.071Z,17.26
2023-05-13T00:08:07.547Z,17.26
2023-05-13T00:11:09.690Z,17.28
2023-05-13T00:14:12.299Z,17.23
2023-05-13T00:17:15.617Z,17.29
2023-05-13T00:20:17.735Z,17.22
2023-05-13T00:23:20.183Z,17.27
2023-05-13T00:26:22.369Z,17.14
2023-05-13T00:29:26.238Z,17.09
2023-05-13T00:32:28.532Z,17.08
2023-05-13T00:35:31.977Z,17.09
2023-05-13T00:38:35.009Z,17.06
2023-05-13T00:41:38.839Z,17.07
2023-05-13T00:44:41.090Z,17.10
2023-05-13T00:47:44.136Z,17.10
2023-05-13T00:50:46.333Z,17.08
2023-05-13T00:53:49.447Z,17.08
2023-05-13T00:56:54.587Z,17.05
2023-05-13T00:59:57.325Z,17.07
2023-05-13T01:03:29.609Z,17.10
2023-05-13T01:07:08.119Z,17.02
2023-05-13T01:10:31.046Z,17.06
2023-05-13T01:13:39.866Z,17.04
2023-05-13T01:16:51.013Z,16.91
2023-05-13T01:19:56.576Z,16.89
2023-05-13T01:22:59.613Z,16.86
2023-05-13T01:26:02.237Z,16.94
2023-05-13T01:29:05.630Z,16.98
2023-05-13T01:32:09.857Z,16.97
2023-05-13T01:35:12.714Z,17.00
2023-05-13T01:38:21.548Z,16.95
2023-05-13T01:41:27.920Z,16.91
2023-05-13T01:44:30.621Z,16.89
2023-05-13T01:47:32.939Z,16.83
2023-05-13T01:50:36.954Z,16.89
2023-05-13T01:53:41.608Z,16.95
2023-05-13T01:56:44.491Z,16.85
2023-05-13T01:59:47.826Z,16.92
2023-05-13T02:02:50.077Z,16.81
2023-05-13T02:05:52.300Z,16.74
2023-05-13T02:08:55.078Z,16.73
2023-05-13T02:11:58.735Z,16.83
2023-05-13T02:15:01.462Z,16.91
2023-05-13T02:18:06.156Z,16.82
2023-05-13T02:21:08.291Z,16.84
2023-05-13T02:24:10.565Z,16.89
2023-05-13T02:27:16.414Z,16.84
2023-05-13T02:30:18.746Z,16.82
2023-05-13T02:33:21.744Z,16.75
2023-05-13T02:36:23.857Z,16.82
2023-05-13T02:39:25.945Z,16.79
2023-05-13T02:42:31.300Z,16.69
2023-05-13T02:45:33.980Z,16.75
2023-05-13T02:48:36.501Z,16.80
2023-05-13T02:51:39.106Z,16.83
2023-05-13T02:54:41.818Z,16.78
2023-05-13T02:57:44.034Z,16.69
2023-05-13T03:00:46.135Z,16.74
2023-05-13T03:03:48.427Z,16.81
2023-05-13T03:06:51.281Z,16.82
2023-05-13T03:09:54.673Z,16.77
2023-05-13T03:13:01.253Z,16.80
2023-05-13T03:16:03.596Z,16.81
2023-05-13T03:19:05.795Z,16.82
2023-05-13T03:22:08.168Z,16.84
2023-05-13T03:25:11.159Z,17.30
2023-05-13T03:28:22.138Z,17.58
2023-05-13T03:31:24.379Z,17.66
2023-05-13T03:34:26.865Z,17.75
2023-05-13T03:37:29.468Z,17.82
2023-05-13T03:40:31.683Z,17.98
2023-05-13T03:43:34.118Z,18.10
2023-05-13T03:46:39.493Z,18.17
2023-05-13T03:49:41.643Z,18.31
2023-05-13T03:52:46.243Z,18.28
2023-05-13T03:55:50.891Z,18.10
2023-05-13T03:58:59.621Z,18.02
2023-05-13T04:02:01.920Z,17.79
2023-05-13T04:05:06.387Z,17.71
2023-05-13T04:08:10.680Z,17.63
2023-05-13T04:11:13.427Z,17.57
2023-05-13T04:14:16.217Z,17.53
2023-05-13T04:17:19.267Z,17.49
2023-05-13T04:20:22.130Z,17.80
2023-05-13T04:23:25.079Z,17.69
2023-05-13T04:26:29.417Z,17.80
2023-05-13T04:29:31.397Z,17.99
2023-05-13T04:32:33.673Z,18.27
2023-05-13T04:35:35.893Z,18.42
2023-05-13T04:38:39.093Z,18.69
2023-05-13T04:41:42.563Z,18.79
2023-05-13T04:44:44.823Z,18.84
2023-05-13T04:47:47.406Z,18.95
2023-05-13T04:50:52.586Z,18.93
2023-05-13T04:53:55.255Z,18.97
2023-05-13T04:56:57.412Z,19.01
2023-05-13T05:00:00.470Z,19.04
2023-05-13T05:03:02.729Z,19.02
2023-05-13T05:06:05.150Z,19.08
2023-05-13T05:09:09.761Z,19.07
2023-05-13T05:12:12.500Z,19.12
2023-05-13T05:15:16.501Z,19.12
2023-05-13T05:18:22.045Z,19.12
2023-05-13T05:21:26.246Z,19.11
2023-05-13T05:24:29.192Z,19.12
2023-05-13T05:27:31.464Z,19.09
2023-05-13T05:34:25.985Z,19.09
2023-05-13T05:37:30.432Z,19.09
2023-05-13T05:40:33.220Z,19.10
2023-05-13T05:43:35.391Z,19.11
2023-05-13T05:46:37.859Z,19.10
2023-05-13T05:49:40.456Z,19.06
2023-05-13T05:53:03.909Z,19.10
2023-05-13T05:56:12.181Z,19.13
2023-05-13T05:59:14.231Z,19.37
2023-05-13T06:02:16.488Z,19.41
2023-05-13T06:05:19.081Z,19.52
2023-05-13T06:08:22.694Z,19.65
2023-05-13T06:11:26.330Z,19.64
2023-05-13T06:14:28.396Z,19.53
2023-05-13T06:17:33.822Z,19.44
2023-05-13T06:20:38.903Z,19.42
2023-05-13T06:23:41.192Z,19.42
2023-05-13T06:26:48.484Z,19.40
2023-05-13T06:29:51.153Z,19.58
2023-05-13T06:33:01.455Z,19.64
2023-05-13T06:36:05.444Z,19.63
2023-05-13T06:39:07.947Z,19.58
2023-05-13T06:42:14.134Z,19.59
2023-05-13T06:45:26.988Z,19.70
2023-05-13T06:48:29.422Z,19.73
2023-05-13T06:51:33.407Z,19.74
2023-05-13T06:54:35.596Z,19.71
2023-05-13T06:57:43.449Z,19.67
2023-05-13T07:00:47.143Z,19.65
2023-05-13T07:03:49.363Z,19.73
2023-05-13T07:06:51.986Z,19.69
2023-05-13T07:09:54.620Z,19.72
2023-05-13T07:12:57.262Z,19.80
2023-05-13T07:15:59.423Z,19.75
2023-05-13T07:19:01.535Z,19.71
2023-05-13T07:22:03.886Z,19.74
2023-05-13T07:25:07.279Z,19.80
2023-05-13T07:28:09.672Z,19.83
2023-05-13T07:31:12.996Z,19.86
2023-05-13T07:34:15.067Z,19.85
2023-05-13T07:37:17.449Z,19.88
2023-05-13T07:40:21.158Z,19.89
2023-05-13T07:43:28.031Z,20.02
2023-05-13T07:46:33.181Z,20.01
2023-05-13T07:49:35.211Z,20.02
2023-05-13T07:52:39.858Z,20.05
2023-05-13T07:55:43.135Z,20.16
2023-05-13T07:58:50.244Z,20.14
2023-05-13T08:01:56.512Z,20.19
2023-05-13T08:05:00.314Z,20.17
2023-05-13T08:08:07.396Z,20.12
2023-05-13T08:11:10.581Z,20.07
2023-05-13T08:14:13.227Z,20.07
2023-05-13T08:17:17.362Z,20.10
2023-05-13T08:20:20.305Z,19.99
2023-05-13T08:23:28.326Z,19.99
2023-05-13T08:26:42.407Z,20.00
2023-05-13T08:29:45.864Z,20.07
2023-05-13T08:32:48.626Z,20.12
2023-05-13T08:35:50.752Z,20.30
2023-05-13T08:38:53.196Z,20.43
2023-05-13T08:41:57.748Z,20.45
2023-05-13T08:45:07.361Z,20.36
2023-05-13T08:48:10.978Z,20.28
2023-05-13T08:51:13.216Z,20.25
2023-05-13T08:54:20.379Z,20.25
2023-05-13T08:57:26.507Z,20.21
2023-05-13T09:00:29.766Z,20.20
2023-05-13T09:03:32.173Z,20.21
2023-05-13T09:06:34.345Z,20.18
2023-05-13T09:09:37.738Z,20.25
2023-05-13T09:12:50.055Z,20.28
2023-05-13T09:15:52.199Z,20.27
2023-05-13T09:19:05.324Z,20.24
2023-05-13T09:22:17.586Z,20.17
2023-05-13T09:25:22.061Z,20.17
2023-05-13T09:28:24.305Z,20.10
2023-05-13T09:31:36.940Z,20.11
2023-05-13T09:34:39.704Z,20.11
2023-05-13T09:37:42.020Z,20.21
2023-05-13T09:41:13.532Z,20.44
2023-05-13T09:44:16.465Z,20.58
2023-05-13T09:47:18.565Z,20.68
2023-05-13T09:50:22.548Z,20.79
2023-05-13T09:53:25.848Z,20.93
2023-05-13T09:56:31.102Z,21.05
2023-05-13T09:59:36.494Z,21.05
2023-05-13T10:02:39.583Z,21.03
2023-05-13T10:05:42.292Z,21.01
2023-05-13T10:08:47.672Z,21.10
2023-05-13T10:11:49.965Z,21.11
2023-05-13T10:14:53.532Z,21.16
2023-05-13T10:17:57.656Z,21.10
2023-05-13T10:21:00.006Z,21.08
2023-05-13T10:24:02.487Z,21.06
2023-05-13T10:27:07.141Z,21.13
2023-05-13T10:30:10.559Z,21.11
2023-05-13T10:33:14.172Z,21.10
2023-05-13T10:36:39.565Z,21.10
2023-05-13T10:40:00.111Z,21.18
2023-05-13T10:43:18.151Z,21.56
2023-05-13T10:46:20.164Z,22.04
2023-05-13T10:49:24.724Z,22.58
2023-05-13T10:52:42.306Z,22.92
2023-05-13T10:55:48.143Z,23.14
2023-05-13T10:59:00.164Z,23.19
2023-05-13T11:02:37.520Z,23.14
2023-05-13T11:05:43.824Z,23.04
2023-05-13T11:08:47.938Z,23.04
2023-05-13T11:11:54.624Z,23.08
2023-05-13T11:14:56.794Z,23.08
2023-05-13T11:17:59.560Z,23.07
2023-05-13T11:21:06.827Z,23.08
2023-05-13T11:24:12.090Z,23.08
2023-05-13T11:27:18.195Z,23.14
2023-05-13T11:30:26.126Z,22.94
2023-05-13T11:34:09.814Z,22.98
2023-05-13T11:37:12.144Z,23.10
2023-05-13T11:40:23.431Z,23.10
2023-05-13T11:43:26.647Z,23.01
2023-05-13T11:46:29.349Z,22.91
2023-05-13T11:49:34.145Z,22.82
2023-05-13T11:52:36.127Z,22.72
2023-05-13T11:55:38.151Z,22.70
2023-05-13T11:58:40.479Z,22.62
2023-05-13T12:01:42.812Z,22.60
2023-05-13T12:04:45.543Z,22.50
2023-05-13T12:07:47.918Z,22.45
2023-05-13T12:10:50.000Z,22.47
2023-05-13T12:13:53.199Z,22.45
2023-05-13T12:16:56.714Z,22.33
2023-05-13T12:20:18.416Z,22.27
2023-05-13T12:23:20.496Z,22.19
2023-05-13T12:26:22.926Z,22.15
2023-05-13T12:29:24.923Z,22.09
2023-05-13T12:32:27.215Z,22.03
2023-05-13T12:35:29.334Z,22.03
2023-05-13T12:38:31.412Z,22.04
2023-05-13T12:41:35.994Z,21.91
2023-05-13T12:44:39.098Z,21.84
2023-05-13T12:47:51.161Z,21.86
2023-05-13T12:50:53.549Z,21.79
2023-05-13T12:53:55.992Z,21.78
2023-05-13T12:56:58.280Z,21.91
2023-05-13T13:00:00.354Z,22.03
2023-05-13T13:03:03.048Z,22.08
2023-05-13T13:06:05.420Z,22.13
2023-05-13T13:09:07.730Z,22.21
2023-05-13T13:12:09.817Z,22.12
2023-05-13T13:18:14.570Z,22.11
2023-05-13T13:21:16.610Z,22.07
2023-05-13T13:24:19.012Z,21.94
2023-05-13T13:27:21.274Z,21.88
2023-05-13T13:30:23.458Z,21.80
2023-05-13T13:33:25.543Z,21.70
2023-05-13T13:36:27.655Z,21.60
2023-05-13T13:39:29.727Z,21.58
2023-05-13T13:42:43.338Z,21.49
2023-05-13T13:45:46.587Z,21.50
2023-05-13T13:48:48.790Z,21.45
2023-05-13T13:51:52.437Z,21.46
2023-05-13T13:54:55.158Z,21.42
2023-05-13T13:57:57.311Z,21.40
2023-05-13T14:00:59.422Z,21.35
2023-05-13T14:04:16.383Z,21.33
2023-05-13T14:07:18.452Z,21.28
2023-05-13T14:10:21.019Z,21.39
2023-05-13T14:13:23.318Z,21.50
2023-05-13T14:16:25.708Z,21.46
2023-05-13T14:19:31.048Z,21.40
2023-05-13T14:22:33.031Z,21.38
2023-05-13T14:25:35.918Z,21.30
2023-05-13T14:29:03.095Z,21.25
2023-05-13T14:32:30.000Z,21.23
2023-05-13T14:35:32.825Z,21.21
2023-05-13T14:38:35.508Z,21.18
2023-05-13T14:41:37.617Z,21.24
2023-05-13T14:44:41.691Z,21.24
2023-05-13T14:47:43.873Z,21.22
2023-05-13T14:50:46.964Z,21.23
2023-05-13T14:53:53.754Z,21.19
2023-05-13T14:56:56.800Z,21.15
2023-05-13T15:00:00.029Z,21.18
2023-05-13T15:03:03.745Z,21.20
2023-05-13T15:06:06.816Z,21.19
2023-05-13T15:09:14.973Z,21.23
2023-05-13T15:12:19.797Z,21.20
2023-05-13T15:15:25.393Z,21.19
2023-05-13T15:18:37.353Z,21.21
2023-05-13T15:21:42.230Z,21.17
2023-05-13T15:24:48.534Z,21.20
2023-05-13T15:27:53.994Z,21.19
2023-05-13T15:30:58.815Z,21.17
2023-05-13T15:34:03.207Z,21.13
2023-05-13T15:37:05.430Z,21.11
2023-05-13T15:40:08.158Z,21.15
2023-05-13T15:43:10.656Z,21.09
2023-05-13T15:46:13.424Z,21.06
2023-05-13T15:49:15.870Z,21.09
2023-05-13T15:52:17.901Z,21.06
2023-05-13T15:55:29.327Z,21.02
2023-05-13T15:58:32.572Z,21.01
2023-05-13T16:01:36.115Z,20.95
2023-05-13T16:04:41.188Z,20.87
2023-05-13T16:07:43.437Z,20.72
2023-05-13T16:11:13.047Z,20.84
2023-05-13T16:14:18.859Z,20.77
2023-05-13T16:17:21.614Z,20.68
2023-05-13T16:20:23.944Z,20.61
2023-05-13T16:23:59.006Z,20.52
2023-05-13T16:27:00.987Z,20.44
2023-05-13T16:30:05.953Z,20.37
2023-05-13T16:33:09.639Z,20.29
2023-05-13T16:36:14.557Z,20.28
2023-05-13T16:39:16.762Z,20.21
2023-05-13T16:42:19.790Z,20.17
2023-05-13T16:45:22.176Z,20.24
2023-05-13T16:48:28.064Z,20.26
2023-05-13T16:51:30.482Z,20.21
2023-05-13T16:54:33.054Z,20.17
2023-05-13T16:57:35.138Z,20.11
2023-05-13T17:00:39.488Z,20.03
2023-05-13T17:03:51.663Z,20.02
2023-05-13T17:06:58.855Z,19.97
2023-05-13T17:10:01.313Z,19.87
2023-05-13T17:13:03.411Z,19.80
2023-05-13T17:16:11.022Z,19.81
2023-05-13T17:19:13.709Z,19.85
2023-05-13T17:22:15.781Z,19.83
2023-05-13T17:25:17.959Z,19.85
2023-05-13T17:28:20.022Z,19.79
2023-05-13T17:31:23.584Z,19.71
2023-05-13T17:34:25.719Z,19.75
2023-05-13T17:37:27.740Z,19.80
2023-05-13T17:40:29.736Z,20.00
2023-05-13T17:43:32.061Z,19.96
2023-05-13T17:46:37.421Z,19.92
2023-05-13T17:49:40.721Z,19.83
2023-05-13T17:52:42.748Z,20.01
2023-05-13T17:55:44.904Z,20.37
2023-05-13T17:58:49.210Z,21.47
2023-05-13T18:01:53.016Z,23.71
2023-05-13T18:04:55.510Z,23.94
2023-05-13T18:07:57.545Z,22.87
2023-05-13T18:10:59.495Z,23.77
2023-05-13T18:14:01.429Z,24.19
2023-05-13T18:17:04.373Z,24.51
2023-05-13T18:20:07.179Z,24.12
2023-05-13T18:23:09.465Z,22.76
2023-05-13T18:26:11.602Z,21.90
2023-05-13T18:29:13.609Z,21.34
2023-05-13T18:32:16.284Z,20.94
2023-05-13T18:35:21.410Z,20.66
2023-05-13T18:38:23.705Z,20.44
2023-05-13T18:41:25.946Z,20.23
2023-05-13T18:44:28.218Z,20.26
2023-05-13T18:47:30.411Z,20.44
2023-05-13T18:50:32.565Z,20.33
2023-05-13T18:53:34.808Z,20.33
2023-05-13T18:56:38.075Z,20.52
2023-05-13T18:59:41.666Z,20.39
2023-05-13T19:02:44.025Z,20.32
2023-05-13T19:05:46.375Z,20.26
2023-05-13T19:08:48.551Z,20.15
2023-05-13T19:11:50.701Z,20.06
2023-05-13T19:14:52.959Z,19.99
2023-05-13T19:17:55.305Z,19.93
2023-05-13T19:20:58.566Z,19.83
2023-05-13T19:24:02.081Z,19.76
2023-05-13T19:27:07.187Z,19.67
2023-05-13T19:30:09.875Z,19.64
2023-05-13T19:33:12.859Z,19.63
2023-05-13T19:36:15.092Z,19.57
2023-05-13T19:39:17.465Z,19.51
2023-05-13T19:42:19.799Z,19.50
2023-05-13T19:45:22.424Z,19.45
2023-05-13T19:48:24.938Z,19.38
2023-05-13T19:51:27.247Z,19.36
2023-05-13T19:54:29.586Z,19.32
2023-05-13T19:57:32.007Z,19.26
2023-05-13T20:00:34.092Z,19.24
2023-05-13T20:03:38.374Z,19.24
2023-05-13T20:06:40.694Z,19.22
2023-05-13T20:09:43.265Z,19.17
2023-05-13T20:12:45.391Z,19.18
2023-05-13T20:15:50.491Z,19.18
2023-05-13T20:18:52.535Z,19.47
2023-05-13T20:21:54.653Z,19.84
2023-05-13T20:24:56.822Z,20.07
2023-05-13T20:27:58.914Z,20.28
2023-05-13T20:31:04.717Z,20.37
2023-05-13T20:34:07.106Z,20.40
2023-05-13T20:37:09.359Z,20.42
2023-05-13T20:40:11.821Z,20.37
2023-05-13T20:43:17.016Z,20.40
2023-05-13T20:46:19.218Z,20.40
2023-05-13T20:49:21.680Z,20.35
2023-05-13T20:52:24.116Z,20.28
2023-05-13T20:55:26.562Z,20.29
2023-05-13T20:58:28.659Z,20.28
2023-05-13T21:01:31.225Z,20.49
2023-05-13T21:04:33.340Z,20.68
2023-05-13T21:07:35.750Z,21.12
2023-05-13T21:10:37.954Z,21.43
2023-05-13T21:13:40.001Z,21.40
2023-05-13T21:16:42.668Z,21.35
2023-05-13T21:19:44.746Z,21.22
2023-05-13T21:22:46.948Z,21.07
2023-05-13T21:25:49.362Z,21.02
2023-05-13T21:28:51.487Z,20.97
2023-05-13T21:31:54.670Z,20.87
2023-05-13T21:34:56.861Z,20.73
2023-05-13T21:38:08.723Z,20.64
2023-05-13T21:41:13.844Z,20.52
2023-05-13T21:44:16.415Z,20.49
2023-05-13T21:47:20.119Z,20.41
2023-05-13T21:50:22.443Z,20.34
2023-05-13T21:53:24.712Z,20.22
2023-05-13T21:56:27.238Z,20.21
2023-05-13T21:59:29.345Z,20.07
2023-05-13T22:02:31.586Z,20.03
2023-05-13T22:05:33.644Z,19.94
2023-05-13T22:08:35.736Z,19.83
2023-05-13T22:11:37.746Z,19.78
2023-05-13T22:14:39.744Z,19.74
2023-05-13T22:17:41.937Z,19.64
2023-05-13T22:20:44.073Z,19.58
2023-05-13T22:23:46.093Z,19.48
2023-05-13T22:26:48.082Z,19.45
2023-05-13T22:29:50.133Z,19.35
2023-05-13T22:32:52.290Z,19.26
2023-05-13T22:35:54.451Z,19.22
2023-05-13T22:38:57.487Z,19.19
2023-05-13T22:41:59.549Z,19.11
2023-05-13T22:45:01.988Z,19.14
2023-05-13T22:48:04.672Z,19.09
2023-05-13T22:51:06.880Z,19.05
2023-05-13T22:54:08.988Z,19.05
2023-05-13T22:57:11.331Z,19.05
2023-05-13T23:00:13.811Z,19.02
2023-05-13T23:03:15.822Z,18.98
2023-05-13T23:06:17.857Z,18.93
2023-05-13T23:09:20.320Z,18.84
2023-05-13T23:12:22.439Z,18.73
2023-05-13T23:15:24.798Z,18.71
2023-05-13T23:18:26.969Z,18.63
2023-05-13T23:21:29.099Z,18.58
2023-05-13T23:24:31.618Z,18.48
2023-05-13T23:27:33.972Z,18.50
2023-05-13T23:30:36.315Z,18.42
2023-05-13T23:33:38.498Z,18.46
2023-05-13T23:36:40.761Z,18.28
2023-05-13T23:39:42.770Z,18.23
2023-05-13T23:42:44.798Z,18.16
2023-05-13T23:45:47.060Z,18.20
2023-05-13T23:48:49.075Z,18.22
2023-05-13T23:51:51.521Z,18.16
2023-05-13T23:54:53.784Z,18.12
2023-05-13T23:57:56.098Z,18.21
